Adna, WA

12:09 AM PST on December 28, 2014 (GMT -0800)
Curtis Hill | Change Station
CLOSE
Current Station
Personal Weather Station
Location: Chehalis, WA
Elevation: 354 ft
Nearby Weather Stations

Elev 354 ft 46.62 °N, 123.09 °W | Updated 57 minutes ago

Overcast
Overcast
41.0 °F
Feels Like 41 °F
N
0.0
Wind Variable Wind from SW

Today
High -- | Low -- °F
--% Chance of Precip.
Yesterday
High -- | Low -- °F
Precip. -- in
7:56 AM 4:32 PM
Waxing Crescent, 45% visible
Pressure 30.13 in
Visibility 10.0 miles
Clouds Few 2400 ft
Scattered Clouds 3400 ft
Mostly Cloudy 5000 ft
Windchill 41 °F
Dew Point 41 °F
Humidity 99%
Rainfall 0.15 in
Snow Depth Not available.
UV 0 out of 12
Pollen .50 out of 12
Air Quality Not available.
Flu Activity Not available.
METAR KCLS 280755Z AUTO 21004KT 10SM FEW024 SCT034 BKN050 06/06 A3013 RMK AO2

More Conditions Fewer Conditions

Pressure 30.13 in
Visibility 10.0 miles
Clouds Few 2400 ft
Scattered Clouds 3400 ft
Mostly Cloudy 5000 ft
Windchill 41 °F
Dew Point 41 °F
Humidity 99%
Rainfall 0.15 in
Snow Depth Not available.
UV 0 out of 12
Pollen .50 out of 12
Air Quality Not available.
Flu Activity Not available.
METAR KCLS 280755Z AUTO 21004KT 10SM FEW024 SCT034 BKN050 06/06 A3013 RMK AO2

More Conditions Fewer Conditions

10-Day Weather Forecast

Almanac

Astronomy

Dec. 28, 2014 Rise Set
Actual Time
Civil Twilight
Nautical Twilight
Astronomical Twilight
Moon
Length of Visible Light
Length of Day
Tomorrow will be .
, % of the Moon is Illuminated

Today's Extremes

State Highs State Lows

Community

WunderPhotos

Upload Photos

1,781,210 photos uploaded!

WunderBlogs® & News

Nearby

Air Quality

  Air Quality AQ Index Pollutant
Not available.

Snow Depth

Station Depth Elevation

Earthquake Activity

City Distance Mag. Time & Date
Minimum magnitude displayed is 2.5.

Coastal Water Temperatures

Place Temperature

Nearby Weather Stations